Time;durP1;ratioP1;P1;durP2;ratioP2;P2;SDS_P1;SDS_P2;PMS_P1;PMS_P2;Temp;Humidity;BMP_temperature;BMP_pressure;BME280_temperature;BME280_humidity;BME280_pressure;Samples;Min_cycle;Max_cycle;Signal;HPM_P1;HPM_P2
2023/03/05 02:21:53;;;;;;;20.63;15.45;;;3.10;99.90;;;;;;6114413;23;2328114;-78
2023/03/05 02:24:35;;;;;;;20.13;15.48;;;3.10;99.90;;;;;;6217764;23;20826;-78
2023/03/05 02:27:03;;;;;;;19.40;15.00;;;3.10;99.90;;;;;;6214938;23;20375;-79
2023/03/05 02:29:32;;;;;;;22.48;16.02;;;3.10;99.90;;;;;;6216463;23;20375;-78
2023/03/05 02:32:00;;;;;;;17.17;13.55;;;3.10;99.90;;;;;;6214834;23;20374;-79
2023/03/05 02:34:27;;;;;;;22.23;15.90;;;3.10;99.90;;;;;;6216445;23;20734;-79
2023/03/05 02:36:54;;;;;;;18.00;14.38;;;3.10;99.90;;;;;;6215119;23;20889;-78
2023/03/05 02:39:21;;;;;;;27.60;19.58;;;3.10;99.90;;;;;;6214935;23;20367;-78
2023/03/05 02:41:48;;;;;;;27.30;18.92;;;3.10;99.90;;;;;;6216130;23;20373;-78
2023/03/05 02:44:15;;;;;;;27.52;19.25;;;3.00;99.90;;;;;;6213876;23;21311;-79
2023/03/05 02:46:42;;;;;;;25.98;17.55;;;3.00;99.90;;;;;;6212910;23;20395;-78
2023/03/05 02:49:08;;;;;;;36.25;23.73;;;3.00;99.90;;;;;;6211446;23;20878;-78
2023/03/05 02:51:35;;;;;;;28.98;20.15;;;2.90;99.90;;;;;;6212797;23;20367;-78
2023/03/05 02:54:02;;;;;;;30.85;19.33;;;2.90;99.90;;;;;;6211558;22;20367;-79
2023/03/05 02:56:29;;;;;;;31.55;20.92;;;2.90;99.90;;;;;;6212619;23;20745;-78
2023/03/05 02:58:56;;;;;;;32.67;21.50;;;2.90;99.90;;;;;;6211517;23;20429;-78
2023/03/05 03:01:23;;;;;;;28.90;20.17;;;2.90;99.90;;;;;;6212443;23;20385;-78
2023/03/05 03:03:50;;;;;;;24.63;17.35;;;2.90;99.90;;;;;;6213341;23;20437;-79
2023/03/05 03:06:17;;;;;;;24.23;17.35;;;2.80;99.90;;;;;;6212179;23;20688;-78
2023/03/05 03:08:44;;;;;;;23.35;16.45;;;2.80;99.90;;;;;;6211674;23;20367;-78
2023/03/05 03:11:12;;;;;;;25.50;18.20;;;2.80;99.90;;;;;;6212247;23;20397;-78
2023/03/05 03:13:40;;;;;;;20.58;15.45;;;2.70;99.90;;;;;;6212589;23;20370;-78
2023/03/05 03:16:12;;;;;;;21.70;15.88;;;2.60;99.90;;;;;;6211717;23;20954;-78
2023/03/05 03:18:39;;;;;;;20.35;14.68;;;2.60;99.90;;;;;;6215153;23;20824;-78
2023/03/05 03:21:06;;;;;;;18.50;13.45;;;2.60;99.90;;;;;;6216060;23;20465;-78
2023/03/05 03:23:33;;;;;;;18.67;13.85;;;2.60;99.90;;;;;;6216828;23;20751;-78
2023/03/05 03:26:00;;;;;;;22.03;15.00;;;2.50;99.90;;;;;;6214856;23;20717;-78
2023/03/05 03:28:27;;;;;;;19.27;14.27;;;2.60;99.90;;;;;;6217821;23;20446;-78
2023/03/05 03:30:54;;;;;;;20.40;14.25;;;2.60;99.90;;;;;;6216547;23;20697;-78
2023/03/05 03:33:21;;;;;;;20.70;14.27;;;2.50;99.90;;;;;;6216325;23;20450;-78
2023/03/05 03:35:48;;;;;;;20.08;14.35;;;2.60;99.90;;;;;;6214894;23;20371;-78
2023/03/05 03:38:15;;;;;;;17.77;13.05;;;2.60;99.90;;;;;;6213508;23;20844;-78
2023/03/05 03:40:42;;;;;;;13.90;10.75;;;2.60;99.90;;;;;;6214273;23;20459;-79
2023/03/05 03:43:08;;;;;;;10.85;7.60;;;2.70;99.90;;;;;;6215354;23;20399;-78
2023/03/05 03:45:39;;;;;;;7.20;5.05;;;2.80;99.90;;;;;;6216539;23;20398;-78
2023/03/05 03:48:06;;;;;;;6.80;4.45;;;3.00;99.90;;;;;;6188889;23;20374;-80
2023/03/05 03:50:33;;;;;;;5.78;3.88;;;3.30;99.90;;;;;;6211103;23;20374;-80
2023/03/05 03:53:00;;;;;;;6.53;4.38;;;3.60;98.40;;;;;;6209755;23;20848;-78
2023/03/05 03:55:27;;;;;;;11.30;7.60;;;3.80;98.30;;;;;;6210348;23;20402;-78
2023/03/05 03:57:54;;;;;;;10.98;7.90;;;4.00;99.90;;;;;;6210025;23;20394;-78
2023/03/05 04:00:21;;;;;;;16.45;10.95;;;4.00;99.90;;;;;;6210065;23;20715;-78
2023/03/05 04:02:48;;;;;;;13.13;9.40;;;3.80;99.90;;;;;;6211672;23;20398;-78
2023/03/05 04:05:15;;;;;;;14.43;9.35;;;3.70;99.90;;;;;;6209581;23;20441;-78
2023/03/05 04:07:44;;;;;;;13.02;8.90;;;3.50;99.90;;;;;;6211910;23;20385;-78
2023/03/05 04:10:11;;;;;;;12.52;7.90;;;3.50;99.90;;;;;;6211091;23;20712;-77
2023/03/05 04:12:38;;;;;;;6.90;5.10;;;3.50;99.90;;;;;;6211238;23;20481;-77
2023/03/05 04:15:06;;;;;;;6.00;3.78;;;3.50;99.90;;;;;;6209271;23;20449;-78
2023/03/05 04:17:33;;;;;;;5.60;3.20;;;3.60;99.60;;;;;;6210381;23;20921;-77
2023/03/05 04:20:00;;;;;;;5.40;3.10;;;3.90;94.70;;;;;;6209359;23;20693;-78
2023/03/05 04:22:27;;;;;;;5.32;2.90;;;4.20;92.50;;;;;;6209767;23;20438;-77
2023/03/05 04:24:54;;;;;;;7.38;3.28;;;4.40;90.90;;;;;;6210338;23;20918;-77
2023/03/05 04:27:21;;;;;;;6.82;2.65;;;4.60;84.10;;;;;;6208940;23;20892;-77
2023/03/05 04:29:48;;;;;;;5.45;2.90;;;4.90;79.70;;;;;;6210303;23;20716;-78
2023/03/05 04:32:21;;;;;;;5.05;2.83;;;5.00;79.40;;;;;;6209143;23;20371;-78
2023/03/05 04:34:48;;;;;;;5.55;3.05;;;5.20;78.40;;;;;;6210236;23;20382;-78
2023/03/05 04:37:15;;;;;;;4.38;2.90;;;5.30;79.40;;;;;;6209344;23;20759;-78
2023/03/05 04:39:42;;;;;;;4.90;2.90;;;5.30;81.10;;;;;;6210110;23;20438;-78
2023/03/05 04:42:09;;;;;;;5.22;2.40;;;5.30;78.30;;;;;;6208995;23;20386;-78
2023/03/05 04:44:36;;;;;;;4.10;2.55;;;5.30;77.70;;;;;;6209459;23;20729;-78
2023/03/05 04:47:03;;;;;;;4.07;2.42;;;5.30;77.20;;;;;;6208897;23;20375;-77
2023/03/05 04:49:30;;;;;;;4.90;2.58;;;5.30;76.50;;;;;;6210194;23;20394;-78
2023/03/05 04:51:57;;;;;;;4.20;2.67;;;5.40;72.50;;;;;;6209585;23;20429;-78
2023/03/05 04:54:24;;;;;;;4.55;2.90;;;5.30;74.10;;;;;;6209201;23;20367;-78
2023/03/05 04:56:51;;;;;;;7.40;3.80;;;5.30;75.60;;;;;;6210152;23;20696;-78
2023/03/05 04:59:18;;;;;;;5.60;3.60;;;5.30;78.90;;;;;;6208770;23;20417;-78
2023/03/05 05:01:44;;;;;;;5.03;3.03;;;5.30;81.20;;;;;;6209992;23;20406;-78
2023/03/05 05:04:11;;;;;;;5.35;2.50;;;5.20;77.60;;;;;;6209212;23;20383;-78
2023/03/05 05:06:38;;;;;;;3.90;2.50;;;5.20;76.60;;;;;;6210233;23;20700;-78
2023/03/05 05:09:05;;;;;;;4.20;2.40;;;5.30;73.00;;;;;;6208833;23;20370;-78
2023/03/05 05:11:32;;;;;;;5.03;2.75;;;5.30;72.10;;;;;;6211477;23;20766;-78
2023/03/05 05:13:59;;;;;;;9.30;5.68;;;5.30;72.40;;;;;;6209623;23;20390;-78
2023/03/05 05:16:26;;;;;;;14.93;9.35;;;5.40;87.20;;;;;;6208984;23;20363;-78
2023/03/05 05:18:52;;;;;;;13.85;9.65;;;5.30;93.00;;;;;;6209216;23;20378;-78
2023/03/05 05:21:20;;;;;;;14.35;9.65;;;5.20;95.90;;;;;;6208670;23;20778;-78
2023/03/05 05:23:47;;;;;;;14.88;10.00;;;5.00;97.20;;;;;;6209752;23;20370;-78
2023/03/05 05:26:14;;;;;;;14.23;10.00;;;4.70;99.90;;;;;;6209106;23;20681;-79
2023/03/05 05:28:42;;;;;;;13.85;10.18;;;4.60;99.90;;;;;;6210094;23;20428;-78
2023/03/05 05:31:11;;;;;;;16.00;10.40;;;4.50;99.90;;;;;;6208472;23;20709;-78
2023/03/05 05:33:38;;;;;;;14.30;9.63;;;4.40;99.90;;;;;;6209618;23;20833;-78
2023/03/05 05:36:07;;;;;;;19.00;10.65;;;4.30;99.90;;;;;;6209201;23;20374;-78
2023/03/05 05:38:34;;;;;;;14.13;10.20;;;4.20;99.90;;;;;;6209260;23;20394;-78
2023/03/05 05:41:12;;;;;;;14.33;9.87;;;4.10;99.90;;;;;;6209817;23;20441;-78
2023/03/05 05:43:40;;;;;;;12.75;8.38;;;4.10;99.90;;;;;;6208789;23;20382;-78
2023/03/05 05:46:15;;;;;;;11.90;6.32;;;4.00;99.90;;;;;;6211137;23;20454;-78
2023/03/05 05:48:43;;;;;;;4.40;2.65;;;4.00;99.90;;;;;;6208299;23;20370;-78
2023/03/05 05:51:13;;;;;;;2.90;2.13;;;4.00;93.00;;;;;;6209605;23;20477;-78
2023/03/05 05:53:41;;;;;;;3.80;2.20;;;4.20;85.80;;;;;;6207971;23;20448;-78
2023/03/05 05:56:10;;;;;;;4.57;2.92;;;4.40;83.30;;;;;;6209595;23;20378;-78
2023/03/05 05:58:38;;;;;;;7.32;4.78;;;4.50;82.10;;;;;;6209057;23;20371;-78
2023/03/05 06:01:20;;;;;;;10.88;7.28;;;4.60;89.00;;;;;;6210807;23;20379;-78
2023/03/05 06:03:47;;;;;;;10.38;7.57;;;4.60;92.00;;;;;;6208985;23;20447;-78
2023/03/05 06:06:16;;;;;;;13.02;9.65;;;4.40;93.30;;;;;;6210491;23;20393;-78
2023/03/05 06:08:43;;;;;;;16.15;10.93;;;4.20;97.60;;;;;;6209679;23;20390;-78
2023/03/05 06:11:10;;;;;;;13.82;9.88;;;4.00;99.90;;;;;;6208953;23;20409;-78
2023/03/05 06:13:38;;;;;;;13.90;9.67;;;3.80;99.90;;;;;;6209556;23;20370;-78
2023/03/05 06:16:08;;;;;;;12.77;9.13;;;3.70;99.90;;;;;;6209256;23;20394;-78
2023/03/05 06:18:35;;;;;;;12.70;9.30;;;3.50;99.90;;;;;;6209344;23;20382;-78
2023/03/05 06:21:05;;;;;;;14.15;9.80;;;3.50;99.90;;;;;;6209616;23;20435;-78
2023/03/05 06:23:33;;;;;;;11.90;9.23;;;3.40;99.90;;;;;;6208768;23;20486;-78
2023/03/05 06:26:05;;;;;;;13.82;9.98;;;3.40;99.90;;;;;;6209039;23;20383;-78
2023/03/05 06:28:33;;;;;;;13.05;9.00;;;3.30;99.90;;;;;;6208414;23;20705;-78
2023/03/05 06:31:04;;;;;;;15.07;10.13;;;3.30;99.90;;;;;;6209361;23;20402;-78
2023/03/05 06:33:33;;;;;;;9.85;6.68;;;3.30;99.90;;;;;;6207965;23;20382;-78
2023/03/05 06:36:09;;;;;;;11.00;7.80;;;3.30;99.90;;;;;;6209141;23;20840;-78
2023/03/05 06:38:37;;;;;;;10.88;7.20;;;3.30;99.90;;;;;;6210080;23;20470;-78
2023/03/05 06:41:13;;;;;;;10.73;6.53;;;3.30;99.90;;;;;;6211657;23;20768;-78
2023/03/05 06:43:43;;;;;;;8.73;6.45;;;3.40;99.90;;;;;;6210049;23;20379;-78
2023/03/05 06:46:20;;;;;;;8.80;5.87;;;3.40;99.90;;;;;;6212813;23;20409;-78
2023/03/05 06:48:48;;;;;;;8.93;6.10;;;3.50;99.20;;;;;;6210134;23;20760;-78
2023/03/05 06:51:27;;;;;;;11.55;8.35;;;3.50;99.90;;;;;;6211439;23;20369;-78
2023/03/05 06:53:55;;;;;;;13.63;9.57;;;3.50;99.90;;;;;;6212171;23;20373;-78
2023/03/05 06:56:22;;;;;;;12.88;8.90;;;3.50;99.90;;;;;;6211084;23;20367;-78
2023/03/05 06:58:50;;;;;;;12.77;7.90;;;3.50;99.90;;;;;;6210266;23;20470;-78
2023/03/05 07:01:19;;;;;;;7.78;5.85;;;3.60;99.90;;;;;;6210256;23;20382;-78
2023/03/05 07:03:53;;;;;;;5.35;3.60;;;3.60;99.90;;;;;;6210648;23;20370;-78
2023/03/05 07:06:21;;;;;;;5.43;3.17;;;3.80;93.00;;;;;;6210975;23;20374;-78
2023/03/05 07:08:48;;;;;;;5.40;2.65;;;4.20;84.80;;;;;;6210672;23;20367;-78
2023/03/05 07:11:19;;;;;;;3.75;2.35;;;4.40;80.40;;;;;;6210216;23;20445;-77
2023/03/05 07:13:47;;;;;;;4.80;2.90;;;4.70;77.70;;;;;;6210180;23;20374;-78
2023/03/05 07:16:18;;;;;;;4.45;2.95;;;4.90;71.90;;;;;;6210850;23;20836;-78
2023/03/05 07:18:46;;;;;;;5.90;3.35;;;5.20;70.10;;;;;;6209801;23;20413;-78
2023/03/05 07:21:24;;;;;;;5.75;3.70;;;5.30;66.70;;;;;;6212426;23;20421;-78
2023/03/05 07:23:55;;;;;;;5.18;2.92;;;5.60;66.00;;;;;;6209430;23;20382;-78
2023/03/05 07:26:23;;;;;;;5.93;3.72;;;5.80;64.50;;;;;;6212711;23;20635;-78
2023/03/05 07:28:50;;;;;;;5.53;4.35;;;5.90;65.20;;;;;;6208761;23;20383;-78
2023/03/05 07:31:25;;;;;;;5.23;3.63;;;6.00;64.00;;;;;;6210752;23;20926;-78
2023/03/05 07:33:53;;;;;;;6.65;3.10;;;6.20;61.60;;;;;;6209118;23;20374;-78
2023/03/05 07:36:20;;;;;;;5.35;3.22;;;6.40;60.90;;;;;;6210858;23;20425;-78
2023/03/05 07:38:47;;;;;;;7.75;3.70;;;6.50;62.60;;;;;;6209368;23;20433;-78
2023/03/05 07:41:19;;;;;;;6.70;4.55;;;6.70;62.30;;;;;;6210476;23;20894;-78
2023/03/05 07:43:49;;;;;;;8.27;5.78;;;6.90;69.50;;;;;;6209260;23;20681;-78
2023/03/05 07:46:18;;;;;;;13.30;9.10;;;7.00;81.20;;;;;;6210396;23;20751;-78
2023/03/05 07:48:45;;;;;;;14.38;10.32;;;7.10;91.30;;;;;;6209866;23;20453;-78
2023/03/05 07:51:15;;;;;;;16.02;10.25;;;7.10;94.10;;;;;;6210398;23;20867;-78
2023/03/05 07:53:43;;;;;;;11.73;8.32;;;7.20;92.90;;;;;;6209430;23;20420;-78
2023/03/05 07:56:11;;;;;;;8.10;5.47;;;7.30;91.80;;;;;;6210334;23;20421;-78
2023/03/05 07:58:38;;;;;;;5.28;3.17;;;7.40;73.30;;;;;;6209666;23;20447;-78
2023/03/05 08:01:12;;;;;;;4.82;2.78;;;7.60;64.80;;;;;;6210320;23;20370;-78
2023/03/05 08:03:40;;;;;;;5.03;2.75;;;7.80;59.40;;;;;;6209900;23;20379;-78
2023/03/05 08:06:08;;;;;;;5.20;2.50;;;8.10;57.30;;;;;;6210104;23;20367;-79
2023/03/05 08:08:35;;;;;;;4.90;2.60;;;8.40;54.60;;;;;;6209858;23;20758;-78
2023/03/05 08:11:07;;;;;;;6.10;2.53;;;8.60;51.90;;;;;;6210245;23;20374;-78
2023/03/05 08:13:33;;;;;;;4.50;2.28;;;8.90;50.80;;;;;;6210365;23;20457;-77
2023/03/05 08:16:09;;;;;;;5.60;2.72;;;9.10;50.00;;;;;;6209602;23;20430;-78
2023/03/05 08:18:36;;;;;;;5.50;3.00;;;9.30;49.00;;;;;;6209502;23;20717;-79
2023/03/05 08:21:03;;;;;;;6.03;3.40;;;9.50;50.80;;;;;;6210160;23;20456;-78
2023/03/05 08:23:31;;;;;;;4.63;2.67;;;9.70;51.90;;;;;;6210131;23;20374;-78
2023/03/05 08:25:57;;;;;;;5.37;3.80;;;9.90;48.10;;;;;;6209699;23;20383;-78
2023/03/05 08:28:24;;;;;;;7.18;4.07;;;10.10;50.80;;;;;;6210018;23;20410;-79
2023/03/05 08:30:51;;;;;;;6.68;3.88;;;10.20;51.50;;;;;;6209149;23;21188;-78
2023/03/05 08:33:18;;;;;;;6.90;3.92;;;10.30;50.90;;;;;;6211858;23;20870;-79
2023/03/05 08:35:45;;;;;;;7.22;4.25;;;10.50;51.90;;;;;;6209442;23;20450;-78
2023/03/05 08:38:12;;;;;;;6.70;4.00;;;10.60;52.10;;;;;;6209948;23;20430;-78
2023/03/05 08:40:39;;;;;;;6.43;3.65;;;10.70;52.30;;;;;;6210671;23;20371;-79
2023/03/05 08:43:06;;;;;;;5.97;3.80;;;10.90;52.70;;;;;;6209975;23;20840;-79
2023/03/05 08:45:33;;;;;;;5.35;3.17;;;11.00;52.70;;;;;;6209921;23;20378;-79
2023/03/05 08:48:00;;;;;;;4.63;2.78;;;11.20;49.50;;;;;;6209684;23;20433;-78
2023/03/05 08:50:27;;;;;;;6.88;3.97;;;11.40;49.10;;;;;;6212202;23;20363;-78
2023/03/05 08:52:55;;;;;;;6.23;3.80;;;11.50;50.90;;;;;;6208920;23;20367;-78
2023/03/05 08:55:22;;;;;;;7.20;4.10;;;11.60;48.70;;;;;;6211100;23;20378;-78
2023/03/05 08:57:49;;;;;;;5.93;4.00;;;11.70;50.10;;;;;;6208832;23;20373;-78
2023/03/05 09:00:17;;;;;;;5.03;3.50;;;11.80;51.50;;;;;;6209697;23;20434;-78
2023/03/05 09:02:43;;;;;;;6.13;4.10;;;11.80;49.00;;;;;;6208678;23;20431;-78
2023/03/05 09:05:11;;;;;;;7.38;4.93;;;12.00;50.40;;;;;;6209937;23;20362;-78
2023/03/05 09:07:38;;;;;;;8.23;4.43;;;12.00;49.90;;;;;;6184766;23;20386;-79
2023/03/05 09:10:10;;;;;;;6.32;3.83;;;12.10;49.00;;;;;;6208532;23;20378;-78
2023/03/05 09:12:37;;;;;;;6.40;4.32;;;12.20;48.70;;;;;;6208653;23;20410;-78
2023/03/05 09:15:07;;;;;;;5.75;4.60;;;12.20;49.40;;;;;;6202493;23;20892;-78
2023/03/05 09:17:35;;;;;;;6.45;4.07;;;12.20;50.50;;;;;;6205860;23;20359;-78
2023/03/05 09:20:03;;;;;;;5.85;3.28;;;12.30;46.50;;;;;;6204924;23;20401;-78
2023/03/05 09:22:30;;;;;;;5.43;3.30;;;12.20;44.60;;;;;;6199374;23;20457;-78
2023/03/05 09:24:57;;;;;;;5.47;3.25;;;12.40;45.20;;;;;;6202972;23;20507;-78
2023/03/05 09:27:24;;;;;;;5.07;3.75;;;12.50;46.30;;;;;;6207943;23;20363;-78
2023/03/05 09:29:52;;;;;;;6.60;4.28;;;12.60;46.70;;;;;;6208740;23;20390;-78
2023/03/05 09:32:18;;;;;;;5.65;3.88;;;12.60;46.00;;;;;;6210905;23;20693;-78
2023/03/05 09:34:45;;;;;;;6.95;4.57;;;12.70;47.70;;;;;;6208808;23;20389;-78
2023/03/05 09:37:12;;;;;;;6.97;4.00;;;12.90;47.00;;;;;;6210808;23;20449;-78
2023/03/05 09:39:39;;;;;;;6.18;3.90;;;13.10;46.70;;;;;;6209560;23;20705;-78
2023/03/05 09:42:25;;;;;;;6.38;3.72;;;13.30;46.90;;;;;;6209724;23;20379;-78
2023/03/05 09:44:55;;;;;;;5.82;4.13;;;13.40;46.70;;;;;;6209793;23;20441;-78
2023/03/05 09:47:51;;;;;;;5.43;3.60;;;13.50;46.50;;;;;;6209267;23;20397;-79
2023/03/05 09:50:47;;;;;;;7.47;4.35;;;13.70;45.60;;;;;;6210067;23;20405;-79
2023/03/05 09:53:29;;;;;;;6.00;4.20;;;13.90;46.40;;;;;;6209907;23;20439;-79
2023/03/05 09:56:03;;;;;;;7.53;5.03;;;14.00;45.40;;;;;;6209697;23;20836;-79
2023/03/05 09:58:40;;;;;;;6.53;4.07;;;14.00;45.30;;;;;;6207723;23;20778;-78
2023/03/05 10:01:14;;;;;;;6.53;4.57;;;14.20;44.90;;;;;;6207686;23;20370;-78
2023/03/05 10:04:12;;;;;;;10.18;6.45;;;14.40;44.80;;;;;;6208719;23;20701;-78
2023/03/05 10:07:03;;;;;;;11.95;8.65;;;14.50;43.80;;;;;;6208403;23;20363;-78
2023/03/05 10:09:44;;;;;;;13.13;10.47;;;14.50;49.10;;;;;;6207997;23;20705;-78
2023/03/05 10:12:19;;;;;;;15.77;10.55;;;14.70;52.30;;;;;;6209611;23;20441;-78
2023/03/05 10:14:48;;;;;;;12.82;9.13;;;14.60;51.30;;;;;;6210130;23;20362;-78
2023/03/05 10:17:33;;;;;;;12.73;10.07;;;14.60;52.00;;;;;;6210798;23;20382;-79
2023/03/05 10:20:14;;;;;;;13.57;10.13;;;14.60;53.40;;;;;;6209881;23;20754;-79
2023/03/05 10:23:01;;;;;;;14.25;10.05;;;14.80;53.40;;;;;;6211234;23;20374;-79
2023/03/05 10:25:52;;;;;;;13.85;9.68;;;14.80;53.90;;;;;;6212223;23;20406;-79
2023/03/05 10:28:25;;;;;;;13.43;10.20;;;14.90;51.90;;;;;;6209569;23;20438;-79
2023/03/05 10:31:03;;;;;;;11.82;8.60;;;15.00;51.10;;;;;;6210822;23;20428;-79
2023/03/05 10:33:51;;;;;;;11.38;7.55;;;15.00;49.60;;;;;;6209914;23;20390;-79
2023/03/05 10:36:47;;;;;;;11.27;8.68;;;15.10;49.20;;;;;;6210741;23;20402;-78
2023/03/05 10:39:16;;;;;;;13.32;8.07;;;15.20;47.30;;;;;;6210178;23;20700;-78
2023/03/05 10:42:04;;;;;;;11.73;8.68;;;15.30;47.60;;;;;;6210844;23;20367;-78
2023/03/05 10:44:36;;;;;;;13.00;8.93;;;15.50;46.50;;;;;;6210225;23;20682;-79
2023/03/05 10:47:19;;;;;;;9.55;7.75;;;15.50;45.20;;;;;;6210884;23;20748;-79
2023/03/05 10:49:50;;;;;;;11.40;8.18;;;15.50;47.60;;;;;;6209824;23;20859;-79
2023/03/05 10:52:29;;;;;;;13.97;8.90;;;15.50;47.00;;;;;;6210906;23;20469;-79
2023/03/05 10:54:56;;;;;;;13.15;9.32;;;15.50;45.80;;;;;;6210174;23;20677;-79
2023/03/05 10:57:30;;;;;;;12.27;9.52;;;15.50;47.00;;;;;;6211143;23;20396;-79
2023/03/05 11:00:19;;;;;;;14.10;9.13;;;15.50;47.00;;;;;;6209861;23;20367;-79
2023/03/05 11:03:05;;;;;;;16.10;11.27;;;15.50;47.60;;;;;;6197909;23;20374;-79
2023/03/05 11:05:43;;;;;;;12.80;9.77;;;15.40;48.20;;;;;;6186747;23;20761;-79
2023/03/05 11:08:22;;;;;;;9.98;7.95;;;15.50;48.20;;;;;;6210374;23;20386;-79
2023/03/05 11:11:14;;;;;;;12.30;8.88;;;15.60;48.20;;;;;;6209646;23;20693;-79
2023/03/05 11:14:02;;;;;;;13.13;9.52;;;15.80;47.50;;;;;;6210543;23;20674;-79
2023/03/05 11:16:32;;;;;;;13.38;9.15;;;15.80;47.00;;;;;;6210483;23;20374;-78
2023/03/05 11:19:14;;;;;;;19.85;15.25;;;15.70;46.60;;;;;;6210514;23;20394;-79
2023/03/05 11:21:42;;;;;;;14.70;10.50;;;15.80;47.20;;;;;;6210141;23;20417;-79
2023/03/05 11:24:13;;;;;;;11.05;8.05;;;15.80;48.40;;;;;;6209773;23;20387;-79
2023/03/05 11:26:57;;;;;;;18.08;13.02;;;15.90;47.90;;;;;;6209767;23;20745;-79
2023/03/05 11:29:29;;;;;;;12.23;9.38;;;15.80;46.60;;;;;;6209866;23;20832;-79
2023/03/05 11:32:19;;;;;;;12.40;8.70;;;15.70;47.70;;;;;;6210414;23;20919;-79
2023/03/05 11:34:46;;;;;;;13.02;9.50;;;15.90;46.50;;;;;;6210714;23;20374;-78
2023/03/05 11:37:31;;;;;;;11.30;7.90;;;15.90;46.70;;;;;;6210752;23;20431;-80
2023/03/05 11:40:23;;;;;;;11.52;7.90;;;15.90;47.80;;;;;;6209457;23;20377;-79
2023/03/05 11:42:57;;;;;;;11.32;7.88;;;16.10;46.50;;;;;;6209569;23;20716;-79
2023/03/05 11:45:26;;;;;;;12.65;9.25;;;16.30;47.20;;;;;;6211430;23;20375;-79
2023/03/05 11:47:57;;;;;;;12.05;8.50;;;16.50;46.00;;;;;;6211272;23;20375;-79
2023/03/05 11:50:26;;;;;;;9.57;7.38;;;16.50;45.60;;;;;;6210358;23;20370;-78
2023/03/05 11:53:17;;;;;;;13.63;8.75;;;16.70;46.70;;;;;;6209674;23;20776;-79
2023/03/05 11:56:17;;;;;;;31.80;22.75;;;16.80;45.40;;;;;;6209334;23;20382;-79
2023/03/05 11:58:53;;;;;;;12.37;8.83;;;16.70;45.90;;;;;;6209313;23;20390;-79
2023/03/05 12:01:23;;;;;;;11.38;8.48;;;16.60;45.30;;;;;;6209439;23;20436;-78
2023/03/05 12:03:51;;;;;;;11.87;8.23;;;16.60;46.30;;;;;;6209118;23;20379;-78
2023/03/05 12:06:43;;;;;;;12.02;8.32;;;16.70;46.30;;;;;;6210167;23;20378;-78
2023/03/05 12:09:39;;;;;;;10.65;8.23;;;16.90;47.40;;;;;;6209237;23;20542;-78
2023/03/05 12:12:37;;;;;;;12.57;8.40;;;16.90;44.90;;;;;;6207936;23;20375;-79
2023/03/05 12:15:07;;;;;;;15.53;10.40;;;16.90;46.00;;;;;;6209075;23;20433;-78
2023/03/05 12:17:42;;;;;;;12.93;9.32;;;17.00;45.80;;;;;;6209159;23;20385;-78
2023/03/05 12:20:26;;;;;;;11.13;8.60;;;17.10;45.50;;;;;;6207734;23;20848;-79
2023/03/05 12:22:56;;;;;;;12.95;9.23;;;17.10;46.20;;;;;;6208540;23;20440;-78
2023/03/05 12:25:23;;;;;;;13.27;9.55;;;17.20;45.80;;;;;;6209985;23;20371;-78
2023/03/05 12:27:50;;;;;;;12.80;8.27;;;17.20;45.60;;;;;;6208405;23;20409;-78
2023/03/05 12:30:35;;;;;;;11.63;8.53;;;17.30;46.00;;;;;;6209578;23;20379;-78
2023/03/05 12:33:04;;;;;;;11.40;8.77;;;17.40;46.00;;;;;;6208633;23;20375;-78
2023/03/05 12:35:39;;;;;;;10.98;8.38;;;17.40;46.10;;;;;;6208816;23;20386;-78
2023/03/05 12:38:31;;;;;;;12.43;10.05;;;17.50;47.00;;;;;;6208654;23;20432;-78
2023/03/05 12:41:20;;;;;;;12.02;9.52;;;17.50;46.40;;;;;;6195324;23;20370;-78
2023/03/05 12:44:06;;;;;;;14.77;10.13;;;17.50;46.50;;;;;;6209718;23;20468;-78
2023/03/05 12:46:36;;;;;;;15.63;11.40;;;17.30;46.60;;;;;;6208184;23;20454;-78
2023/03/05 12:49:19;;;;;;;15.20;10.82;;;17.10;48.50;;;;;;6209258;23;20375;-77
2023/03/05 12:51:50;;;;;;;14.32;10.45;;;17.30;47.90;;;;;;6208335;23;20383;-78
2023/03/05 12:54:28;;;;;;;11.90;9.77;;;17.40;47.60;;;;;;6208785;23;20736;-78
2023/03/05 12:57:18;;;;;;;13.97;10.40;;;17.60;47.70;;;;;;6209915;23;20426;-78
2023/03/05 12:59:50;;;;;;;14.93;11.07;;;17.80;47.30;;;;;;6208570;23;20374;-77
2023/03/05 13:02:33;;;;;;;13.18;9.73;;;17.80;45.00;;;;;;6210317;23;20382;-77
2023/03/05 13:05:22;;;;;;;15.68;10.43;;;17.60;45.90;;;;;;6208289;23;20367;-78
2023/03/05 13:07:50;;;;;;;15.17;10.03;;;17.60;46.10;;;;;;6164282;23;20378;-78
2023/03/05 13:10:28;;;;;;;15.07;10.43;;;17.70;46.20;;;;;;6209552;23;20375;-77
2023/03/05 13:12:57;;;;;;;16.35;10.88;;;17.80;46.10;;;;;;6208456;23;20410;-78
2023/03/05 13:15:25;;;;;;;15.48;10.50;;;17.70;44.80;;;;;;6209346;23;20374;-78
2023/03/05 13:18:02;;;;;;;19.65;12.65;;;17.70;45.80;;;;;;6208641;23;20462;-78
2023/03/05 13:20:38;;;;;;;24.77;15.93;;;17.80;45.50;;;;;;6208420;23;20922;-79
2023/03/05 13:23:25;;;;;;;14.27;9.68;;;17.70;44.80;;;;;;6208829;23;20371;-78
2023/03/05 13:26:17;;;;;;;15.95;11.30;;;17.80;45.70;;;;;;6208922;23;20375;-77
2023/03/05 13:29:01;;;;;;;23.88;15.55;;;17.80;45.60;;;;;;6210019;23;20708;-78
2023/03/05 13:31:28;;;;;;;14.77;10.02;;;18.00;45.60;;;;;;6208767;23;20738;-79
2023/03/05 13:33:58;;;;;;;28.55;14.93;;;18.10;44.40;;;;;;6209774;23;20413;-78
2023/03/05 13:36:26;;;;;;;15.30;9.82;;;18.10;43.60;;;;;;6208834;23;20405;-78
2023/03/05 13:38:53;;;;;;;12.25;8.52;;;18.10;43.40;;;;;;6208438;23;20906;-78
2023/03/05 13:41:24;;;;;;;13.40;7.97;;;18.00;44.00;;;;;;6209398;23;20749;-78
2023/03/05 13:43:53;;;;;;;12.00;8.37;;;18.20;43.80;;;;;;6208212;23;20436;-78
2023/03/05 13:46:25;;;;;;;14.48;9.50;;;18.30;42.10;;;;;;6210476;23;20382;-78
2023/03/05 13:48:52;;;;;;;24.27;16.75;;;18.20;42.60;;;;;;6212179;23;20401;-78
2023/03/05 13:51:19;;;;;;;16.67;10.80;;;18.10;43.10;;;;;;6211856;23;20429;-78
2023/03/05 13:53:47;;;;;;;12.03;8.67;;;18.10;43.40;;;;;;6211666;23;20480;-78
2023/03/05 13:56:16;;;;;;;13.03;7.90;;;18.10;43.20;;;;;;6211558;23;20728;-78
2023/03/05 13:58:53;;;;;;;12.10;7.30;;;18.20;41.40;;;;;;6209660;23;20425;-78
2023/03/05 14:01:45;;;;;;;11.00;7.35;;;18.20;41.40;;;;;;6210652;23;20417;-78
2023/03/05 14:04:11;;;;;;;14.23;8.60;;;18.30;40.20;;;;;;6211756;23;20378;-78
2023/03/05 14:07:03;;;;;;;13.40;9.18;;;18.20;40.40;;;;;;6212774;23;20513;-78
2023/03/05 14:09:37;;;;;;;11.55;7.70;;;18.20;41.40;;;;;;6210495;23;20441;-78
2023/03/05 14:12:25;;;;;;;10.32;7.95;;;18.10;42.90;;;;;;6212871;23;20394;-78
2023/03/05 14:14:53;;;;;;;12.83;9.63;;;18.10;41.50;;;;;;6210273;23;20372;-78
2023/03/05 14:17:34;;;;;;;12.32;8.30;;;18.10;41.90;;;;;;6212634;23;20414;-78
2023/03/05 14:20:12;;;;;;;13.70;9.00;;;18.20;41.80;;;;;;6210468;23;20374;-75
2023/03/05 14:22:43;;;;;;;13.43;8.68;;;17.90;42.00;;;;;;6210237;23;20374;-78
2023/03/05 14:25:36;;;;;;;12.18;8.05;;;17.90;42.70;;;;;;6211982;23;20429;-78
2023/03/05 14:28:24;;;;;;;13.07;8.15;;;17.90;43.10;;;;;;6212042;23;20370;-78
2023/03/05 14:30:54;;;;;;;11.55;8.15;;;18.10;42.70;;;;;;6209289;23;20375;-78
2023/03/05 14:33:30;;;;;;;15.38;10.80;;;18.10;41.50;;;;;;6210157;23;20454;-78
2023/03/05 14:35:59;;;;;;;14.48;11.00;;;18.20;42.80;;;;;;6210617;23;20378;-78
2023/03/05 14:38:30;;;;;;;13.38;9.13;;;18.30;42.90;;;;;;6210118;23;20708;-78
2023/03/05 14:40:57;;;;;;;17.23;11.82;;;18.30;41.40;;;;;;6209279;23;20378;-78
2023/03/05 14:43:24;;;;;;;17.48;11.10;;;18.20;42.20;;;;;;6212039;23;20498;-78
2023/03/05 14:45:51;;;;;;;18.13;12.52;;;18.30;42.10;;;;;;6210604;23;20430;-78
2023/03/05 14:48:18;;;;;;;12.93;9.30;;;18.30;42.90;;;;;;6209944;23;20374;-78
2023/03/05 14:50:55;;;;;;;12.82;9.45;;;18.10;42.40;;;;;;6209126;23;20705;-78
2023/03/05 14:53:30;;;;;;;22.75;17.75;;;17.90;43.10;;;;;;6210121;23;20755;-78
2023/03/05 14:55:56;;;;;;;19.08;15.15;;;17.70;43.00;;;;;;6210930;23;20379;-78
2023/03/05 14:58:26;;;;;;;15.57;11.90;;;17.60;43.40;;;;;;6209215;23;20403;-78
2023/03/05 15:00:54;;;;;;;13.75;10.88;;;17.60;43.30;;;;;;6209605;23;20378;-78
2023/03/05 15:03:22;;;;;;;28.52;20.80;;;17.50;44.80;;;;;;6209469;23;20433;-77
2023/03/05 15:05:51;;;;;;;18.02;13.38;;;17.50;43.10;;;;;;6209388;23;20739;-78
2023/03/05 15:08:28;;;;;;;12.38;10.07;;;17.40;43.70;;;;;;6210073;23;20375;-78
2023/03/05 15:10:55;;;;;;;13.53;9.67;;;17.40;43.50;;;;;;6209141;23;20379;-78
2023/03/05 15:13:22;;;;;;;13.50;9.88;;;17.40;43.90;;;;;;6209917;23;20906;-78
2023/03/05 15:15:51;;;;;;;15.32;10.43;;;17.30;43.90;;;;;;6208708;23;20401;-78
2023/03/05 15:18:20;;;;;;;17.67;13.10;;;17.30;44.50;;;;;;6210290;23;20401;-78
2023/03/05 15:20:48;;;;;;;17.23;13.52;;;17.40;44.00;;;;;;6208738;23;20405;-78
2023/03/05 15:23:16;;;;;;;16.02;11.43;;;17.40;44.50;;;;;;6211457;23;20381;-78
2023/03/05 15:25:43;;;;;;;14.93;9.95;;;17.40;44.40;;;;;;6209856;23;20402;-78
2023/03/05 15:28:10;;;;;;;16.27;11.30;;;17.30;43.50;;;;;;6209152;23;20398;-78